Saturday, January 19, 2019, 4:18 AM GMT
Back to Local

CYHZ, Halifax International Airport

Location: , , Canada Lat: 44.883
Local Time: 4:18 AM GMT ( 4:18 GMT) Lon: -63.5
Time Zone: GMT Elev: 475 ft

Show me the last for .
Show Decoded

2019-01-19 04:00 METAR CYHZ 190400Z 16005KT 5/8SM R23/5500FT/U R14/5500FT/D BR VV001 M01/M01
                 A2998 RMK FG8 SLP161 =
2019-01-19 03:18 METAR CYHZ 190318Z 15006KT 3/4SM R23/P6000FT/D R14/P6000FT/N BR VV001 M01/M01
                 A2998 RMK FG8 SLP163 =
2019-01-19 03:00 METAR CYHZ 190300Z 14009KT 1SM R23/P6000FT/D R14/P6000FT/D -FZDZ BR VV002
                 M01/M01 A2998 RMK FG8 SLP162 =
2019-01-19 02:51 METAR CYHZ 190251Z 14008KT 2 1/2SM -FZDZ BR OVC002 M02/M02 A2998 RMK ST8 SLP162
                 =
2019-01-19 02:32 METAR CYHZ 190232Z 14008KT 7SM -FZDZ -SHSN OVC003 M02/M02 A2998 RMK ST8 CVCTV
                 CLD EMBD SLP164 =
2019-01-19 02:00 METAR CYHZ 190200Z 15007KT 10SM -SHSN OVC004 M02/M02 A3000 RMK ST8 CVCTV CLD
                 EMBD SLP170 =
2019-01-19 01:36 METAR CYHZ 190136Z 14007KT 10SM -SHSN OVC004 M02/M02 A3001 RMK ST8 CVCTV CLD
                 EMBD SLP173 =
2019-01-19 01:00 METAR CYHZ 190100Z 14006KT 12SM -SHSN OVC008TCU M02/M03 A3002 RMK TCU8 CVCTV CLD
                 EMBD SLP178 =
2019-01-19 00:20 METAR CYHZ 190020Z 14008KT 12SM -SHSN BKN008 OVC012 M03/M04 A3003 RMK SF6SC2
                 CVCTV CLD EMBD SLP180 =
2019-01-19 00:00 METAR CYHZ 190000Z 15008KT 15SM OVC010 M03/M04 A3003 RMK SC8 SLP181 =
2019-01-18 23:44 METAR CYHZ 182344Z 14009KT 15SM OVC010 M03/M05 A3003 RMK SC8 SLP181 =
2019-01-18 23:00 METAR CYHZ 182300Z 14006KT 15SM BKN018 M04/M06 A3005 RMK SC7 SLP189 =
2019-01-18 22:00 METAR CYHZ 182200Z 13008KT 15SM BKN022 BKN120 BKN260 M04/M06 A3007 RMK SC5AC1CI1
                 SLP195 =
2019-01-18 21:00 METAR CYHZ 182100Z 13009KT 15SM FEW030 SCT120 SCT260 M04/M07 A3010 RMK SF1AC2CI1
                 SLP204 =
2019-01-18 20:00 METAR CYHZ 182000Z 14013KT 15SM FEW017 BKN031 BKN260 M03/M07 A3012 RMK SF2SC3CI1
                 SLP213 =
2019-01-18 19:00 METAR CYHZ 181900Z 15009G16KT 15SM FEW030 SCT080 BKN240 M03/M08 A3016 RMK
                 SC2AC2CI2 SLP224 =
2019-01-18 18:00 METAR CYHZ 181800Z 13008KT 100V160 15SM FEW030 OVC060 M04/M09 A3019 RMK SC1SC7
                 PRESFR SLP235 =
2019-01-18 17:00 METAR CYHZ 181700Z 14007KT 15SM FEW028 OVC060 M06/M10 A3024 RMK SC2SC6 PRESFR
                 SLP254 =
2019-01-18 16:00 METAR CYHZ 181600Z 10003KT 080V160 15SM FEW030 OVC060 M08/M12 A3028 RMK SC1SC7
                 SLP267 =
2019-01-18 15:00 METAR CYHZ 181500Z 10002KT 15SM OVC065 M10/M13 A3031 RMK SC8 SLP278 =
2019-01-18 14:00 METAR CYHZ 181400Z 12006KT 15SM OVC075 M11/M14 A3029 RMK AC8 SLP271 =
2019-01-18 13:00 METAR CYHZ 181300Z 11008KT 15SM BKN090 OVC240 M14/M17 A3029 RMK AC6CI2 SLP270 =
2019-01-18 12:00 METAR CYHZ 181200Z 12007KT 15SM SCT120 BKN240 M15/M19 A3031 RMK AC4CI3 SLP277 =
2019-01-18 11:00 METAR CYHZ 181100Z 13009KT 15SM BKN110 M16/M19 A3031 RMK AS6 SLP278 =
2019-01-18 10:00 METAR CYHZ 181000Z 12008KT 15SM OVC100 M15/M19 A3032 RMK AS8 SLP282 =
2019-01-18 09:00 METAR CYHZ 180900Z 12005KT 15SM OVC120 M14/M20 A3034 RMK AS8 SLP287 =
2019-01-18 08:00 METAR CYHZ 180800Z 06003KT 15SM OVC110 M14/M18 A3035 RMK AS8 SLP289 =
2019-01-18 07:00 METAR CYHZ 180700Z 05002KT 15SM OVC120 M14/M18 A3035 RMK AS8 SLP291 =
2019-01-18 06:00 METAR CYHZ 180600Z 01002KT 15SM OVC180 M15/M17 A3034 RMK AS8 SLP286 =
2019-01-18 05:00 METAR CYHZ 180500Z 33004KT 15SM BKN190 M13/M17 A3034 RMK AS7 SLP287 =

Support USWX by starting your Amazon purchase here.